In Rescue
 
Open Full Screen Window  High Contrast Mode
Wind Gusting 00 knots
07
March 31, 2020 3:18 PM CDT
Weather Information
Wind Direction
  050 °
Wind Speed
  07 kt (8 mph)
Wind Gust
  00 kt (0 mph)
Altimeter
30.05 in
Visibility
10 SM
Temperature
10° C
50° F
Dewpoint
-01° C
30° F
Humidity
47%
1hr Rain Fall
00.00 in.
24hr Rain Fall
00.00 in.
Sky Condition
Clear
VFR

METAR K9MN 312018Z AUTO 05007KT 10SM CLR 10/M01 A3005 RMK AO1 T00971014

FAA Disclaimer: The data displayed is for advisory purposes only and is not to be used for flight planning or operations.